Time;durP1;ratioP1;P1;durP2;ratioP2;P2;SDS_P1;SDS_P2;PMS_P1;PMS_P2;Temp;Humidity;BMP_temperature;BMP_pressure;BME280_temperature;BME280_humidity;BME280_pressure;Samples;Min_cycle;Max_cycle;Signal;HPM_P1;HPM_P2
2023/05/08 05:14:44;;;;;;;;;;;;;;;14.56;57.53;98591.13;5200937;23;19978;-62
2023/05/08 05:17:10;;;;;;;;;;;;;;;14.55;57.57;98595.53;4838213;29;19960;-61
2023/05/08 05:19:35;;;;;;;;;;;;;;;14.57;55.92;98587.50;4837662;29;19933;-64
2023/05/08 05:22:00;;;;;;;;;;;;;;;14.46;56.65;98581.25;4823987;29;19975;-64
2023/05/08 05:24:26;;;;;;;;;;;;;;;14.58;56.97;98578.63;4837742;29;19925;-64
2023/05/08 05:26:51;;;;;;;;;;;;;;;16.65;59.80;98580.75;4842282;29;19917;-65
2023/05/08 05:29:16;;;;;;;;;;;;;;;17.59;55.61;98575.09;4841030;29;19976;-63
2023/05/08 05:31:41;;;;;;;;;;;;;;;17.94;52.79;98571.84;4842164;29;19917;-63
2023/05/08 05:34:07;;;;;;;;;;;;;;;18.15;52.32;98574.31;4823737;29;19920;-63
2023/05/08 05:36:32;;;;;;;;;;;;;;;18.30;51.39;98574.69;4831498;29;19921;-63
2023/05/08 05:38:57;;;;;;;;;;;;;;;18.09;49.60;98573.06;4841721;29;19940;-65
2023/05/08 05:41:23;;;;;;;;;;;;;;;16.99;48.92;98583.09;4825365;29;19969;-65
2023/05/08 05:43:48;;;;;;;;;;;;;;;16.47;50.50;98583.19;4838330;29;19934;-65
2023/05/08 05:46:13;;;;;;;;;;;;;;;16.20;51.47;98591.72;4842691;29;19955;-65
2023/05/08 05:48:38;;;;;;;;;;;;;;;15.86;52.39;98594.59;4830842;29;20306;-65
2023/05/08 05:51:04;;;;;;;;;;;;;;;15.99;52.59;98588.25;4842327;29;20355;-65
2023/05/08 05:53:29;;;;;;;;;;;;;;;15.88;53.31;98592.63;4840943;29;20236;-65
2023/05/08 05:55:54;;;;;;;;;;;;;;;15.83;52.74;98597.50;4831779;29;19927;-64
2023/05/08 05:58:19;;;;;;;;;;;;;;;15.80;52.84;98599.56;4830921;29;19921;-65
2023/05/08 06:00:46;;;;;;;;;;;;;;;15.75;52.12;98597.28;4836016;29;20040;-65
2023/05/08 06:03:11;;;;;;;;;;;;;;;15.77;53.25;98598.00;4839866;29;19931;-65
2023/05/08 06:05:36;;;;;;;;;;;;;;;15.79;53.42;98598.69;4831870;29;19921;-65
2023/05/08 06:08:02;;;;;;;;;;;;;;;15.82;53.97;98593.16;4840240;29;19917;-64
2023/05/08 06:10:27;;;;;;;;;;;;;;;15.74;53.15;98603.53;4838551;29;19963;-66
2023/05/08 18:04:15;;;;;;;;;;;;;;;18.34;48.35;98528.25;5606909;23;19928;-63
2023/05/08 18:06:42;;;;;;;;;;;;;;;18.35;48.50;98535.25;4858428;29;20294;-65
2023/05/08 18:09:07;;;;;;;;;;;;;;;18.32;48.11;98535.56;4858246;29;19920;-62
2023/05/08 18:11:33;;;;;;;;;;;;;;;18.26;48.22;98537.78;4846274;29;19939;-62
2023/05/08 18:13:58;;;;;;;;;;;;;;;18.22;48.08;98536.41;4846988;29;19916;-63
2023/05/08 18:16:23;;;;;;;;;;;;;;;18.13;48.22;98537.28;4841224;29;20375;-62
2023/05/08 18:18:48;;;;;;;;;;;;;;;18.11;47.66;98535.78;4845024;29;20453;-62
2023/05/08 18:21:14;;;;;;;;;;;;;;;18.06;47.77;98545.97;4857236;29;19916;-62
2023/05/08 18:23:39;;;;;;;;;;;;;;;18.02;48.13;98550.72;4856499;29;19921;-62
2023/05/08 18:26:04;;;;;;;;;;;;;;;17.99;48.23;98551.00;4845582;29;19935;-62
2023/05/08 18:28:30;;;;;;;;;;;;;;;17.94;48.11;98554.09;4842113;29;19964;-62
2023/05/08 18:30:55;;;;;;;;;;;;;;;17.94;48.03;98558.59;4840474;29;20298;-63
2023/05/08 18:33:20;;;;;;;;;;;;;;;17.92;47.78;98556.06;4848919;29;20343;-62
2023/05/08 18:35:45;;;;;;;;;;;;;;;17.82;48.19;98559.72;4859669;29;19916;-63
2023/05/08 18:38:11;;;;;;;;;;;;;;;17.78;48.61;98565.28;4847793;29;19932;-62
2023/05/08 18:40:36;;;;;;;;;;;;;;;17.72;48.90;98559.69;4857892;29;19924;-63
2023/05/08 18:43:01;;;;;;;;;;;;;;;17.69;48.14;98549.38;4846968;29;19924;-61
2023/05/08 18:45:26;;;;;;;;;;;;;;;17.68;47.85;98547.69;4859391;29;19930;-62
2023/05/08 18:47:52;;;;;;;;;;;;;;;17.62;48.35;98557.06;4852811;29;20015;-62
2023/05/08 18:50:18;;;;;;;;;;;;;;;17.60;48.70;98558.19;4856609;29;19950;-62
2023/05/08 18:52:43;;;;;;;;;;;;;;;17.51;48.61;98551.91;4841405;29;19920;-63
2023/05/08 18:55:08;;;;;;;;;;;;;;;17.49;48.86;98553.88;4851293;29;20310;-64
2023/05/08 18:57:34;;;;;;;;;;;;;;;17.47;49.11;98561.09;4851591;29;19920;-64
2023/05/08 18:59:59;;;;;;;;;;;;;;;17.43;49.00;98562.38;4839213;29;19966;-64
2023/05/08 19:02:26;;;;;;;;;;;;;;;17.42;48.87;98568.66;4849779;29;20357;-63
2023/05/08 19:04:51;;;;;;;;;;;;;;;17.40;49.14;98567.94;4856265;29;19991;-64
2023/05/08 19:07:17;;;;;;;;;;;;;;;17.32;49.53;98569.50;4857044;29;19986;-64
2023/05/08 19:09:42;;;;;;;;;;;;;;;17.25;50.09;98572.84;4857307;29;19924;-63
2023/05/08 19:12:07;;;;;;;;;;;;;;;17.28;50.40;98573.41;4854351;29;20026;-63
2023/05/08 19:14:32;;;;;;;;;;;;;;;17.28;50.13;98572.56;4836951;29;19968;-64
2023/05/08 19:16:58;;;;;;;;;;;;;;;17.22;49.86;98568.66;4838774;29;19970;-63
2023/05/08 19:19:23;;;;;;;;;;;;;;;17.24;50.30;98573.78;4839831;29;19976;-63
2023/05/08 19:21:48;;;;;;;;;;;;;;;17.22;50.30;98568.66;4856918;29;20371;-63
2023/05/08 19:24:15;;;;;;;;;;;;;;;17.14;50.35;98572.97;4853984;29;20310;-64
2023/05/08 19:26:40;;;;;;;;;;;;;;;17.12;50.75;98567.78;4856816;29;20386;-63
2023/05/08 19:29:05;;;;;;;;;;;;;;;17.10;50.69;98564.44;4826153;29;19928;-63
2023/05/08 19:31:31;;;;;;;;;;;;;;;17.09;50.82;98568.06;4855340;29;19927;-63
2023/05/08 19:33:56;;;;;;;;;;;;;;;17.02;51.18;98567.78;4856145;29;19920;-64
2023/05/08 19:36:21;;;;;;;;;;;;;;;17.01;50.96;98567.94;4851437;29;20400;-63
2023/05/08 19:38:46;;;;;;;;;;;;;;;16.96;51.35;98572.78;4856650;29;19967;-63
2023/05/08 19:41:12;;;;;;;;;;;;;;;16.94;50.82;98574.75;4854945;29;19967;-63
2023/05/08 19:43:37;;;;;;;;;;;;;;;16.92;51.19;98571.38;4853981;29;20004;-63
2023/05/08 19:46:02;;;;;;;;;;;;;;;16.91;51.42;98572.38;4856041;29;19964;-63
2023/05/08 19:48:27;;;;;;;;;;;;;;;16.83;51.66;98570.41;4853697;29;20007;-63
2023/05/08 19:50:52;;;;;;;;;;;;;;;16.81;51.45;98573.16;4856445;29;20313;-63
2023/05/08 19:53:18;;;;;;;;;;;;;;;16.81;51.94;98575.00;4856838;29;20445;-63
2023/05/08 19:55:43;;;;;;;;;;;;;;;16.78;52.22;98575.25;4855190;29;20288;-64
2023/05/08 19:58:08;;;;;;;;;;;;;;;16.73;52.27;98583.59;4856700;29;19968;-64
2023/05/08 20:00:34;;;;;;;;;;;;;;;17.73;60.86;98583.44;4854237;29;19924;-62
2023/05/08 20:02:59;;;;;;;;;;;;;;;18.66;57.69;98581.81;4839534;29;19920;-62
2023/05/08 20:05:24;;;;;;;;;;;;;;;18.26;50.95;98582.94;4857676;29;19931;-64
2023/05/08 20:07:49;;;;;;;;;;;;;;;17.79;53.44;98588.22;4856160;29;19942;-64
2023/05/08 20:10:15;;;;;;;;;;;;;;;17.49;54.82;98591.00;4856221;29;20022;-64
